createdAt,value
2023-03-20T00:02:27.142Z,12.01
2023-03-20T00:04:55.890Z,10.96
2023-03-20T00:07:25.065Z,9.83
2023-03-20T00:09:54.930Z,8.96
2023-03-20T00:12:26.599Z,8.31
2023-03-20T00:14:55.626Z,7.79
2023-03-20T00:17:24.323Z,7.36
2023-03-20T00:19:52.975Z,7.46
2023-03-20T00:22:22.513Z,9.60
2023-03-20T00:24:51.476Z,11.54
2023-03-20T00:27:20.474Z,12.07
2023-03-20T00:29:49.185Z,10.94
2023-03-20T00:32:18.261Z,9.78
2023-03-20T00:34:46.987Z,8.88
2023-03-20T00:37:15.966Z,8.20
2023-03-20T00:39:44.655Z,7.67
2023-03-20T00:42:22.172Z,7.70
2023-03-20T00:44:54.584Z,9.85
2023-03-20T00:47:24.518Z,11.66
2023-03-20T00:49:54.739Z,12.18
2023-03-20T00:52:24.149Z,11.10
2023-03-20T00:54:52.944Z,9.90
2023-03-20T00:57:34.606Z,9.00
2023-03-20T01:00:22.254Z,8.26
2023-03-20T01:02:53.731Z,7.70
2023-03-20T01:05:22.822Z,7.83
2023-03-20T01:07:51.538Z,9.93
2023-03-20T01:10:20.276Z,11.71
2023-03-20T01:12:49.268Z,12.13
2023-03-20T01:15:21.874Z,11.06
2023-03-20T01:17:53.189Z,9.88
2023-03-20T01:20:25.761Z,9.05
2023-03-20T01:22:55.318Z,8.39
2023-03-20T01:25:24.443Z,7.92
2023-03-20T01:27:55.154Z,8.22
2023-03-20T01:30:26.694Z,10.49
2023-03-20T01:32:56.853Z,12.22
2023-03-20T01:35:27.831Z,12.46
2023-03-20T01:37:57.604Z,11.31
2023-03-20T01:40:42.199Z,10.21
2023-03-20T01:43:17.126Z,9.30
2023-03-20T01:46:01.616Z,8.68
2023-03-20T01:49:01.834Z,8.86
2023-03-20T01:51:36.377Z,11.47
2023-03-20T01:54:17.879Z,12.74
2023-03-20T01:56:52.465Z,12.06
2023-03-20T01:59:38.573Z,10.84
2023-03-20T02:02:08.936Z,9.80
2023-03-20T02:04:42.960Z,9.12
2023-03-20T02:07:16.624Z,9.16
2023-03-20T02:09:47.955Z,11.35
2023-03-20T02:12:17.988Z,12.92
2023-03-20T02:14:47.595Z,13.16
2023-03-20T02:17:16.448Z,11.90
2023-03-20T02:19:51.328Z,10.60
2023-03-20T02:22:54.612Z,9.69
2023-03-20T02:25:32.538Z,9.77
2023-03-20T02:28:27.797Z,11.98
2023-03-20T02:31:12.989Z,13.51
2023-03-20T02:33:51.242Z,13.03
2023-03-20T02:36:48.537Z,11.71
2023-03-20T02:39:39.265Z,10.54
2023-03-20T02:42:16.152Z,10.03
2023-03-20T02:44:53.795Z,11.87
2023-03-20T02:47:50.348Z,13.60
2023-03-20T02:50:41.666Z,13.52
2023-03-20T02:53:20.683Z,12.06
2023-03-20T02:56:07.883Z,10.90
2023-03-20T02:58:46.497Z,10.52
2023-03-20T03:01:21.051Z,12.33
2023-03-20T03:03:58.683Z,13.67
2023-03-20T03:06:31.794Z,13.78
2023-03-20T03:09:09.608Z,12.52
2023-03-20T03:11:43.984Z,11.29
2023-03-20T03:14:36.030Z,10.40
2023-03-20T03:17:08.578Z,10.46
2023-03-20T03:19:41.892Z,12.38
2023-03-20T03:22:12.241Z,13.79
2023-03-20T03:24:46.896Z,14.31
2023-03-20T03:27:41.264Z,13.32
2023-03-20T03:30:18.963Z,11.91
2023-03-20T03:32:54.310Z,10.96
2023-03-20T03:35:24.663Z,10.76
2023-03-20T03:38:07.461Z,12.53
2023-03-20T03:40:50.588Z,14.08
2023-03-20T03:43:35.667Z,14.31
2023-03-20T03:46:35.830Z,13.00
2023-03-20T03:49:07.208Z,11.67
2023-03-20T03:51:40.097Z,10.85
2023-03-20T03:54:18.060Z,11.14
2023-03-20T03:56:49.808Z,13.11
2023-03-20T03:59:28.325Z,14.36
2023-03-20T04:01:59.830Z,14.06
2023-03-20T04:04:30.362Z,12.77
2023-03-20T04:06:59.267Z,11.65
2023-03-20T04:09:28.926Z,10.86
2023-03-20T04:11:57.651Z,11.37
2023-03-20T04:14:26.392Z,13.22
2023-03-20T04:16:55.422Z,14.41
2023-03-20T04:19:24.094Z,14.20
2023-03-20T04:21:52.778Z,12.96
2023-03-20T04:24:22.065Z,11.85
2023-03-20T04:26:50.779Z,10.98
2023-03-20T04:29:19.672Z,10.83
2023-03-20T04:31:48.401Z,12.51
2023-03-20T04:34:18.139Z,13.98
2023-03-20T04:36:48.146Z,14.77
2023-03-20T04:39:17.093Z,14.60
2023-03-20T04:41:46.207Z,13.31
2023-03-20T04:44:14.874Z,12.11
2023-03-20T04:46:43.602Z,11.20
2023-03-20T04:49:12.299Z,10.95
2023-03-20T04:51:41.151Z,12.67
2023-03-20T04:54:09.808Z,14.39
2023-03-20T04:56:38.544Z,15.06
2023-03-20T04:59:07.219Z,14.10
2023-03-20T05:01:36.417Z,12.86
2023-03-20T05:04:05.735Z,11.88
2023-03-20T05:06:34.884Z,11.23
2023-03-20T05:09:04.109Z,12.33
2023-03-20T05:11:32.870Z,14.13
2023-03-20T05:14:01.542Z,14.99
2023-03-20T05:16:30.237Z,14.21
2023-03-20T05:18:59.013Z,13.01
2023-03-20T05:21:27.710Z,12.05
2023-03-20T05:23:56.406Z,11.35
2023-03-20T05:26:25.344Z,12.14
2023-03-20T05:28:54.013Z,13.93
2023-03-20T05:31:22.771Z,15.02
2023-03-20T05:33:51.650Z,14.62
2023-03-20T05:36:20.612Z,13.38
2023-03-20T05:38:49.464Z,12.34
2023-03-20T05:41:18.241Z,11.96
2023-03-20T05:43:47.024Z,13.41
2023-03-20T05:46:16.460Z,14.85
2023-03-20T05:48:45.127Z,15.56
2023-03-20T05:51:18.312Z,14.70
2023-03-20T05:54:07.728Z,13.36
2023-03-20T05:56:37.349Z,12.34
2023-03-20T05:59:06.560Z,12.12
2023-03-20T06:01:35.454Z,13.79
2023-03-20T06:04:04.296Z,15.17
2023-03-20T06:06:35.400Z,15.59
2023-03-20T06:09:05.104Z,14.56
2023-03-20T06:11:36.867Z,13.34
2023-03-20T06:14:06.681Z,12.39
2023-03-20T06:16:35.356Z,12.32
2023-03-20T06:19:04.079Z,13.90
2023-03-20T06:21:32.858Z,15.17
2023-03-20T06:24:01.572Z,15.91
2023-03-20T06:26:30.342Z,15.39
2023-03-20T06:28:59.021Z,14.13
2023-03-20T06:31:27.672Z,13.09
2023-03-20T06:33:56.647Z,12.68
2023-03-20T06:36:25.608Z,14.20
2023-03-20T06:38:56.865Z,15.67
2023-03-20T06:41:34.376Z,16.19
2023-03-20T06:44:03.930Z,15.13
2023-03-20T06:46:32.791Z,13.88
2023-03-20T06:49:01.890Z,12.94
2023-03-20T06:51:30.708Z,12.75
2023-03-20T06:53:59.365Z,14.35
2023-03-20T06:56:28.073Z,15.74
2023-03-20T06:58:56.732Z,16.33
2023-03-20T07:01:26.148Z,15.47
2023-03-20T07:03:54.998Z,14.26
2023-03-20T07:06:23.915Z,13.32
2023-03-20T07:08:53.078Z,13.11
2023-03-20T07:11:22.532Z,14.69
2023-03-20T07:13:51.210Z,16.08
2023-03-20T07:16:19.920Z,16.61
2023-03-20T07:18:51.706Z,15.68
2023-03-20T07:21:22.907Z,14.45
2023-03-20T07:23:51.593Z,13.53
2023-03-20T07:26:20.842Z,14.06
2023-03-20T07:28:49.742Z,15.67
2023-03-20T07:31:24.167Z,16.73
2023-03-20T07:33:52.880Z,17.11
2023-03-20T07:36:21.822Z,16.03
2023-03-20T07:38:50.577Z,14.79
2023-03-20T07:41:19.274Z,13.80
2023-03-20T07:43:47.956Z,13.56
2023-03-20T07:46:16.684Z,15.19
2023-03-20T07:48:45.505Z,16.53
2023-03-20T07:51:14.199Z,17.18
2023-03-20T07:53:42.948Z,17.49
2023-03-20T07:56:11.754Z,16.53
2023-03-20T07:58:40.480Z,15.27
2023-03-20T08:01:09.171Z,14.23
2023-03-20T08:03:38.918Z,14.08
2023-03-20T08:06:09.729Z,15.60
2023-03-20T08:08:38.789Z,16.89
2023-03-20T08:11:07.605Z,17.65
2023-03-20T08:13:36.311Z,17.22
2023-03-20T08:16:06.045Z,15.85
2023-03-20T08:18:35.262Z,14.77
2023-03-20T08:21:04.643Z,14.48
2023-03-20T08:23:33.491Z,15.96
2023-03-20T08:26:02.449Z,17.27
2023-03-20T08:28:46.675Z,17.99
2023-03-20T08:31:18.052Z,17.87
2023-03-20T08:33:47.200Z,16.71
2023-03-20T08:36:17.244Z,15.62
2023-03-20T08:38:47.767Z,15.29
2023-03-20T08:41:17.935Z,16.74
2023-03-20T08:43:47.839Z,17.97
2023-03-20T08:46:17.432Z,18.43
2023-03-20T08:48:46.515Z,17.52
2023-03-20T08:51:15.302Z,16.32
2023-03-20T08:53:43.982Z,15.32
2023-03-20T08:56:12.865Z,15.08
2023-03-20T08:58:41.554Z,16.59
2023-03-20T09:01:10.976Z,17.93
2023-03-20T09:03:39.838Z,18.12
2023-03-20T09:06:09.875Z,17.23
2023-03-20T09:08:39.060Z,16.09
2023-03-20T09:11:08.304Z,15.72
2023-03-20T09:13:37.012Z,17.07
2023-03-20T09:16:06.649Z,18.21
2023-03-20T09:18:36.012Z,18.75
2023-03-20T09:21:04.940Z,18.06
2023-03-20T09:23:33.632Z,16.83
2023-03-20T09:26:02.448Z,15.79
2023-03-20T09:28:31.162Z,15.47
2023-03-20T09:31:01.263Z,16.91
2023-03-20T09:33:29.963Z,18.20
2023-03-20T09:35:58.764Z,18.72
2023-03-20T09:38:27.594Z,17.92
2023-03-20T09:41:01.366Z,16.72
2023-03-20T09:44:01.065Z,15.71
2023-03-20T09:47:12.517Z,15.66
2023-03-20T09:49:49.244Z,17.71
2023-03-20T09:52:56.672Z,18.72
2023-03-20T09:55:40.536Z,18.88
2023-03-20T09:58:18.469Z,17.68
2023-03-20T10:00:48.313Z,16.62
2023-03-20T10:03:19.153Z,16.24
2023-03-20T10:06:16.324Z,17.68
2023-03-20T10:08:46.351Z,19.08
2023-03-20T10:11:34.071Z,19.45
2023-03-20T10:14:24.194Z,18.39
2023-03-20T10:17:08.157Z,17.29
2023-03-20T10:19:56.866Z,16.59
2023-03-20T10:22:36.112Z,16.99
2023-03-20T10:25:31.158Z,18.87
2023-03-20T10:28:04.459Z,20.13
2023-03-20T10:30:55.410Z,20.06
2023-03-20T10:33:42.309Z,18.80
2023-03-20T10:36:41.418Z,17.73
2023-03-20T10:39:23.556Z,17.65
2023-03-20T10:41:59.017Z,19.35
2023-03-20T10:44:42.045Z,20.20
2023-03-20T10:47:16.342Z,19.36
2023-03-20T10:49:53.250Z,18.27
2023-03-20T10:52:29.386Z,18.00
2023-03-20T10:55:03.646Z,19.57
2023-03-20T10:57:38.694Z,20.92
2023-03-20T11:00:13.915Z,20.95
2023-03-20T11:02:42.662Z,20.20
2023-03-20T11:05:28.563Z,19.55
2023-03-20T11:08:09.433Z,18.92
2023-03-20T11:10:39.595Z,18.47
2023-03-20T11:13:30.540Z,18.68
2023-03-20T11:16:08.929Z,20.62
2023-03-20T11:18:37.885Z,21.69
2023-03-20T11:21:13.950Z,21.30
2023-03-20T11:23:43.354Z,20.48
2023-03-20T11:26:16.475Z,19.81
2023-03-20T11:28:56.684Z,19.32
2023-03-20T11:31:33.993Z,18.92
2023-03-20T11:34:20.305Z,19.17
2023-03-20T11:37:09.774Z,21.08
2023-03-20T11:39:53.643Z,21.78
2023-03-20T11:42:25.462Z,20.90
2023-03-20T11:45:04.025Z,20.04
2023-03-20T11:47:35.699Z,19.36
2023-03-20T11:50:07.261Z,18.88
2023-03-20T11:52:39.795Z,18.58
2023-03-20T11:55:34.040Z,18.96
2023-03-20T11:58:05.743Z,21.04
2023-03-20T12:00:41.347Z,21.57
2023-03-20T12:03:55.824Z,20.89
2023-03-20T12:06:41.473Z,20.10
2023-03-20T12:09:48.441Z,19.69
2023-03-20T12:12:36.578Z,19.39
2023-03-20T12:15:28.848Z,19.14
2023-03-20T12:18:01.602Z,18.86
2023-03-20T12:20:37.025Z,18.58
2023-03-20T12:23:09.221Z,18.35
2023-03-20T12:26:03.206Z,18.68
2023-03-20T12:29:27.727Z,20.70
2023-03-20T12:32:13.457Z,20.77
2023-03-20T12:34:47.095Z,19.87
2023-03-20T12:37:18.471Z,19.18
2023-03-20T12:39:54.818Z,18.62
2023-03-20T12:42:32.617Z,18.18
2023-03-20T12:45:11.194Z,17.87
2023-03-20T12:47:58.807Z,17.69
2023-03-20T12:50:34.507Z,17.66
2023-03-20T12:53:37.436Z,17.73
2023-03-20T12:56:17.146Z,18.68
2023-03-20T12:59:24.320Z,20.39
2023-03-20T13:02:12.562Z,20.26
2023-03-20T13:04:53.355Z,19.81
2023-03-20T13:07:34.329Z,19.36
2023-03-20T13:10:15.830Z,18.98
2023-03-20T13:13:01.717Z,18.59
2023-03-20T13:15:33.997Z,18.11
2023-03-20T13:18:46.191Z,17.67
2023-03-20T13:21:33.037Z,17.12
2023-03-20T13:24:19.193Z,16.64
2023-03-20T13:26:58.773Z,16.86
2023-03-20T13:29:39.638Z,18.64
2023-03-20T13:32:27.742Z,19.86
2023-03-20T13:35:06.782Z,20.15
2023-03-20T13:37:40.594Z,19.08
2023-03-20T13:40:29.540Z,17.90
2023-03-20T13:43:07.000Z,16.92
2023-03-20T13:45:41.478Z,16.17
2023-03-20T13:48:42.597Z,16.01
2023-03-20T13:51:17.094Z,17.72
2023-03-20T13:54:01.405Z,18.63
2023-03-20T13:56:49.480Z,17.98
2023-03-20T13:59:24.125Z,16.89
2023-03-20T14:02:20.799Z,16.12
2023-03-20T14:04:54.974Z,16.04
2023-03-20T14:07:33.732Z,17.62
2023-03-20T14:10:20.597Z,18.80
2023-03-20T14:12:54.203Z,19.10
2023-03-20T14:15:26.820Z,18.13
2023-03-20T14:17:55.782Z,17.17
2023-03-20T14:20:34.703Z,16.41
2023-03-20T14:23:04.811Z,15.82
2023-03-20T14:25:43.577Z,15.89
2023-03-20T14:28:12.749Z,17.59
2023-03-20T14:30:43.944Z,18.95
2023-03-20T14:33:12.741Z,19.52
2023-03-20T14:36:10.817Z,18.64
2023-03-20T14:39:04.411Z,17.42
2023-03-20T14:42:04.207Z,16.56
2023-03-20T14:44:54.959Z,15.92
2023-03-20T14:47:39.132Z,16.03
2023-03-20T14:50:27.958Z,17.85
2023-03-20T14:53:19.729Z,19.20
2023-03-20T14:55:51.458Z,19.36
2023-03-20T14:58:43.237Z,18.29
2023-03-20T15:01:21.720Z,17.12
2023-03-20T15:03:52.596Z,16.32
2023-03-20T15:06:22.836Z,15.86
2023-03-20T15:09:10.022Z,16.88
2023-03-20T15:11:42.548Z,18.50
2023-03-20T15:14:20.853Z,19.26
2023-03-20T15:16:58.861Z,18.53
2023-03-20T15:19:28.534Z,17.41
2023-03-20T15:21:57.344Z,16.58
2023-03-20T15:24:29.671Z,16.86
2023-03-20T15:27:01.223Z,18.14
2023-03-20T15:29:33.110Z,19.14
2023-03-20T15:32:13.867Z,19.00
2023-03-20T15:34:45.848Z,17.71
2023-03-20T15:37:17.417Z,16.62
2023-03-20T15:39:49.101Z,15.86
2023-03-20T15:42:21.995Z,16.73
2023-03-20T15:44:53.847Z,18.11
2023-03-20T15:47:24.721Z,18.56
2023-03-20T15:49:58.332Z,17.67
2023-03-20T15:52:32.782Z,16.51
2023-03-20T15:55:07.484Z,15.60
2023-03-20T15:57:39.149Z,14.92
2023-03-20T16:00:19.664Z,14.96
2023-03-20T16:02:49.726Z,16.85
2023-03-20T16:05:21.378Z,18.10
2023-03-20T16:07:50.491Z,17.74
2023-03-20T16:10:29.970Z,16.58
2023-03-20T16:12:59.322Z,15.51
2023-03-20T16:15:31.556Z,14.79
2023-03-20T16:18:03.824Z,14.70
2023-03-20T16:20:47.550Z,16.34
2023-03-20T16:23:37.373Z,17.64
2023-03-20T16:26:08.692Z,16.85
2023-03-20T16:28:38.858Z,15.77
2023-03-20T16:31:15.653Z,14.93
2023-03-20T16:33:45.300Z,14.26
2023-03-20T16:36:22.707Z,14.19
2023-03-20T16:39:03.423Z,15.92
2023-03-20T16:41:34.115Z,17.37
2023-03-20T16:44:19.136Z,17.18
2023-03-20T16:47:01.524Z,16.01
2023-03-20T16:49:32.246Z,15.01
2023-03-20T16:52:05.442Z,14.34
2023-03-20T16:54:36.347Z,13.84
2023-03-20T16:57:18.719Z,13.93
2023-03-20T16:59:47.934Z,15.98
2023-03-20T17:02:30.069Z,17.33
2023-03-20T17:05:05.474Z,17.01
2023-03-20T17:07:34.393Z,15.88
2023-03-20T17:10:18.274Z,15.00
2023-03-20T17:12:49.176Z,14.25
2023-03-20T17:15:21.494Z,13.72
2023-03-20T17:17:51.568Z,13.88
2023-03-20T17:20:24.590Z,15.75
2023-03-20T17:22:57.075Z,17.22
2023-03-20T17:25:26.511Z,17.18
2023-03-20T17:27:55.282Z,16.13
2023-03-20T17:30:25.446Z,15.13
2023-03-20T17:32:54.497Z,14.36
2023-03-20T17:35:23.292Z,13.76
2023-03-20T17:37:52.070Z,13.86
2023-03-20T17:40:22.957Z,15.58
2023-03-20T17:42:51.739Z,17.05
2023-03-20T17:45:21.264Z,17.55
2023-03-20T17:47:51.585Z,16.63
2023-03-20T17:50:25.462Z,15.57
2023-03-20T17:52:55.212Z,14.75
2023-03-20T17:55:23.894Z,14.16
2023-03-20T17:57:53.945Z,13.72
2023-03-20T18:00:24.737Z,13.82
2023-03-20T18:02:53.456Z,15.61
2023-03-20T18:05:22.358Z,17.09
2023-03-20T18:07:51.067Z,17.45
2023-03-20T18:10:33.283Z,16.52
2023-03-20T18:13:02.177Z,15.46
2023-03-20T18:15:31.270Z,14.74
2023-03-20T18:18:00.046Z,14.18
2023-03-20T18:20:33.372Z,14.23
2023-03-20T18:23:02.084Z,16.02
2023-03-20T18:25:30.893Z,17.38
2023-03-20T18:28:01.527Z,17.43
2023-03-20T18:30:41.472Z,16.38
2023-03-20T18:33:10.274Z,15.31
2023-03-20T18:35:39.085Z,14.57
2023-03-20T18:38:12.867Z,13.97
2023-03-20T18:40:43.800Z,14.04
2023-03-20T18:43:13.179Z,15.83
2023-03-20T18:45:41.941Z,17.24
2023-03-20T18:48:12.546Z,17.52
2023-03-20T18:50:43.174Z,16.48
2023-03-20T18:59:30.765Z,14.66
2023-03-20T19:01:59.537Z,16.45
2023-03-20T19:04:30.631Z,17.62
2023-03-20T19:06:59.333Z,17.64
2023-03-20T19:09:28.214Z,16.50
2023-03-20T19:12:06.535Z,15.42
2023-03-20T19:14:54.199Z,14.55
2023-03-20T19:17:38.584Z,14.54
2023-03-20T19:20:31.042Z,16.36
2023-03-20T19:23:01.720Z,17.63
2023-03-20T19:25:30.959Z,17.25
2023-03-20T19:28:00.803Z,16.08
2023-03-20T19:30:38.709Z,15.07
2023-03-20T19:33:07.739Z,14.24
2023-03-20T19:36:01.976Z,14.19
2023-03-20T19:38:38.563Z,16.01
2023-03-20T19:44:30.400Z,17.09
2023-03-20T19:46:59.047Z,15.96
2023-03-20T19:49:31.075Z,15.00
2023-03-20T19:52:02.368Z,14.23
2023-03-20T19:54:31.087Z,14.18
2023-03-20T19:56:59.920Z,15.85
2023-03-20T19:59:29.692Z,17.26
2023-03-20T20:01:58.593Z,17.64
2023-03-20T20:04:28.388Z,16.62
2023-03-20T20:07:15.619Z,15.49
2023-03-20T20:09:46.065Z,14.50
2023-03-20T20:12:14.729Z,14.32
2023-03-20T20:14:44.029Z,16.01
2023-03-20T20:17:13.041Z,17.41
2023-03-20T20:19:41.696Z,17.58
2023-03-20T20:22:24.974Z,16.45
2023-03-20T20:24:54.869Z,15.19
2023-03-20T20:27:24.838Z,14.34
2023-03-20T20:29:54.981Z,14.22
2023-03-20T20:32:26.744Z,15.90
2023-03-20T20:38:36.766Z,17.63
2023-03-20T20:40:34.240Z,16.33
2023-03-20T20:43:08.320Z,15.17
2023-03-20T20:45:38.825Z,14.25
2023-03-20T20:48:22.207Z,14.15
2023-03-20T20:51:24.903Z,16.28
2023-03-20T20:54:03.412Z,17.61
2023-03-20T20:56:32.126Z,17.26
2023-03-20T20:59:00.857Z,16.05
2023-03-20T21:01:29.612Z,14.98
2023-03-20T21:03:58.320Z,14.20
2023-03-20T21:06:57.923Z,14.98
2023-03-20T21:09:15.846Z,16.86
2023-03-20T21:11:44.552Z,17.64
2023-03-20T21:14:14.220Z,16.89
2023-03-20T21:16:42.888Z,15.68
2023-03-20T21:19:11.588Z,14.69
2023-03-20T21:21:55.337Z,14.43
2023-03-20T21:24:35.201Z,16.22
2023-03-20T21:27:08.081Z,17.45
2023-03-20T21:29:38.115Z,17.23
2023-03-20T21:32:09.585Z,16.00
2023-03-20T21:34:40.273Z,14.94
2023-03-20T21:39:59.507Z,14.26
2023-03-20T21:42:28.289Z,16.08
2023-03-20T21:45:50.133Z,17.33
2023-03-20T21:48:30.056Z,17.23
2023-03-20T21:50:57.519Z,15.89
2023-03-20T21:54:26.034Z,14.68
2023-03-20T21:56:59.964Z,13.77
2023-03-20T21:59:48.332Z,13.84
2023-03-20T22:02:09.575Z,15.82
2023-03-20T22:05:24.841Z,17.08
2023-03-20T22:08:03.384Z,17.30
2023-03-20T22:11:18.197Z,15.95
2023-03-20T22:14:02.533Z,14.64
2023-03-20T22:16:57.715Z,13.79
2023-03-20T22:22:20.777Z,16.65
2023-03-20T22:30:58.090Z,14.86
2023-03-20T22:42:06.967Z,17.19
2023-03-20T22:44:50.478Z,17.03
2023-03-20T22:47:01.430Z,15.62
2023-03-20T22:49:30.139Z,14.54
2023-03-20T22:52:22.574Z,14.18
2023-03-20T22:54:47.514Z,15.96
2023-03-20T22:57:16.616Z,17.14
2023-03-20T22:59:45.287Z,17.01
2023-03-20T23:02:14.128Z,15.77
2023-03-20T23:04:45.447Z,14.67
2023-03-20T23:07:14.291Z,13.86
2023-03-20T23:09:43.015Z,13.79
2023-03-20T23:12:11.796Z,15.46
2023-03-20T23:14:45.780Z,16.79
2023-03-20T23:17:15.297Z,17.25
2023-03-20T23:19:49.173Z,16.22
2023-03-20T23:22:21.327Z,14.96
2023-03-20T23:24:51.051Z,14.06
2023-03-20T23:27:20.107Z,13.79
2023-03-20T23:29:48.840Z,15.28
2023-03-20T23:32:17.496Z,16.61
2023-03-20T23:34:46.218Z,17.13
2023-03-20T23:37:14.880Z,16.20
2023-03-20T23:39:43.899Z,15.01
2023-03-20T23:42:29.380Z,14.07
2023-03-20T23:45:07.149Z,13.90
2023-03-20T23:47:45.059Z,15.64
2023-03-20T23:50:26.327Z,16.80
2023-03-20T23:53:06.396Z,16.46
2023-03-20T23:55:44.165Z,15.13
2023-03-20T23:58:13.862Z,14.15
